Turks and Caicos Islands Weather

[source: ADDS]
METAR
MBPV 040920Z 0412/0512 08005KT 9999 SCT016 FM041800 10018KT 9000 VCSH SCT015 BKN035 BECMG 0500/0502 FEW016 MBGT 040920Z 0412/0512 08005KT 9999 SCT016 FM041800 10018KT 9000 VCSH SCT015 BKN035 BECMG 0500/0502 FEW016 TAF
MBPV 040920Z 0412/0512 08005KT 9999 SCT016 FM041800 10018KT 9000 VCSH SCT015 BKN035 BECMG 0500/0502 FEW016 =
MBGT 040920Z 0412/0512 08005KT 9999 SCT016 FM041800 10018KT 9000 VCSH SCT015 BKN035 BECMG 0500/0502 FEW016 =
SR / SS: 11:06 / 22:54 UTC (MBPV 2015-03-04)
E-mail Print PDF
Weather